VOZ1485 YPPH-YBRM
Flight info
| Callsign | VOZ1485 |
|---|---|
| Flight time | 2h 3m |
| Altitude | 37000 |
| Route | AMANA Y31 BRM |
| Aircraft | B38M/M-SDE1FGHILORVWXY/HB1 |
Departure
| Time | 2026-05-06 23:22 |
|---|---|
| Airport | Perth International Airport (YPPH) |
Arrival
| Time | 2026-05-07 01:26 |
|---|---|
| Airport | Broome International Airport (YBRM) |
| Time | Latitude | Longitude | Altitude | Speed | Heading |
|---|---|---|---|---|---|
| 2026-05-06 22:59 | -31.94137 | 115.96919 | 70 ft | 0 kts | 7° |
| 2026-05-06 23:12 | -31.94155 | 115.96916 | 66 ft | 4 kts | 9° |
| 2026-05-06 23:12 | -31.94181 | 115.96915 | 63 ft | 4 kts | 345° |
| 2026-05-06 23:12 | -31.94201 | 115.96929 | 60 ft | 4 kts | 303° |
| 2026-05-06 23:12 | -31.94206 | 115.96941 | 70 ft | 2 kts | 284° |
| 2026-05-06 23:17 | -31.94205 | 115.96935 | 70 ft | 2 kts | 284° |
| 2026-05-06 23:17 | -31.94197 | 115.96898 | 66 ft | 8 kts | 284° |
| 2026-05-06 23:17 | -31.94201 | 115.96818 | 70 ft | 12 kts | 228° |
| 2026-05-06 23:18 | -31.94282 | 115.96784 | 65 ft | 14 kts | 192° |
| 2026-05-06 23:18 | -31.94378 | 115.96756 | 63 ft | 15 kts | 193° |
| 2026-05-06 23:18 | -31.94485 | 115.96724 | 65 ft | 17 kts | 194° |
| 2026-05-06 23:18 | -31.94602 | 115.96690 | 70 ft | 19 kts | 194° |
| 2026-05-06 23:19 | -31.94732 | 115.96653 | 66 ft | 20 kts | 193° |
| 2026-05-06 23:19 | -31.94874 | 115.96613 | 65 ft | 22 kts | 193° |
| 2026-05-06 23:19 | -31.95024 | 115.96568 | 67 ft | 23 kts | 193° |
| 2026-05-06 23:19 | -31.95183 | 115.96522 | 63 ft | 24 kts | 194° |
| 2026-05-06 23:20 | -31.95350 | 115.96472 | 62 ft | 25 kts | 194° |
| 2026-05-06 23:20 | -31.95526 | 115.96421 | 64 ft | 27 kts | 194° |
| 2026-05-06 23:20 | -31.95711 | 115.96368 | 64 ft | 28 kts | 193° |
| 2026-05-06 23:20 | -31.95890 | 115.96314 | 66 ft | 19 kts | 200° |
| 2026-05-06 23:21 | -31.95913 | 115.96197 | 65 ft | 17 kts | 284° |
| 2026-05-06 23:21 | -31.95883 | 115.96060 | 64 ft | 18 kts | 284° |
| 2026-05-06 23:21 | -31.95847 | 115.95975 | 70 ft | 3 kts | 9° |
| 2026-05-06 23:21 | -31.95826 | 115.95982 | 70 ft | 4 kts | 14° |
| 2026-05-06 23:22 | -31.95649 | 115.96036 | 66 ft | 65 kts | 14° |
| 2026-05-06 23:22 | -31.94963 | 115.96234 | 66 ft | 138 kts | 14° |
| 2026-05-06 23:22 | -31.93836 | 115.96563 | 144 ft | 191 kts | 17° |
| 2026-05-06 23:22 | -31.92460 | 115.96952 | 815 ft | 206 kts | 16° |
| 2026-05-06 23:23 | -31.91144 | 115.97326 | 2237 ft | 197 kts | 19° |
| 2026-05-06 23:23 | -31.89819 | 115.97708 | 3270 ft | 194 kts | 18° |
| 2026-05-06 23:23 | -31.88489 | 115.98090 | 4205 ft | 201 kts | 17° |
| 2026-05-06 23:23 | -31.87210 | 115.98846 | 4808 ft | 216 kts | 46° |
| 2026-05-06 23:24 | -31.86445 | 116.00429 | 5417 ft | 235 kts | 77° |
| 2026-05-06 23:24 | -31.86269 | 116.02410 | 6055 ft | 253 kts | 85° |
| 2026-05-06 23:24 | -31.86130 | 116.04532 | 6823 ft | 264 kts | 86° |
| 2026-05-06 23:24 | -31.85988 | 116.06702 | 7718 ft | 269 kts | 86° |
| 2026-05-06 23:25 | -31.85847 | 116.08880 | 8624 ft | 271 kts | 86° |
| 2026-05-06 23:25 | -31.85703 | 116.11107 | 9578 ft | 275 kts | 86° |
| 2026-05-06 23:25 | -31.85464 | 116.13357 | 10401 ft | 281 kts | 77° |
| 2026-05-06 23:25 | -31.84979 | 116.15619 | 11077 ft | 293 kts | 77° |
| 2026-05-06 23:26 | -31.84488 | 116.18023 | 11455 ft | 313 kts | 78° |
| 2026-05-06 23:26 | -31.83981 | 116.20571 | 11931 ft | 327 kts | 78° |
| 2026-05-06 23:26 | -31.83465 | 116.23208 | 12622 ft | 332 kts | 78° |
| 2026-05-06 23:26 | -31.82952 | 116.25860 | 13426 ft | 336 kts | 78° |
| 2026-05-06 23:27 | -31.82430 | 116.28566 | 14147 ft | 341 kts | 78° |
| 2026-05-06 23:27 | -31.81909 | 116.31265 | 14849 ft | 344 kts | 78° |
| 2026-05-06 23:27 | -31.81378 | 116.34019 | 15527 ft | 347 kts | 78° |
| 2026-05-06 23:27 | -31.80841 | 116.36799 | 16200 ft | 350 kts | 78° |
| 2026-05-06 23:28 | -31.80301 | 116.39596 | 16868 ft | 352 kts | 78° |
| 2026-05-06 23:28 | -31.79756 | 116.42413 | 17525 ft | 355 kts | 78° |
| 2026-05-06 23:28 | -31.79207 | 116.45248 | 18170 ft | 357 kts | 77° |
| 2026-05-06 23:28 | -31.78652 | 116.48107 | 18794 ft | 360 kts | 77° |
| 2026-05-06 23:29 | -31.78093 | 116.50985 | 19321 ft | 363 kts | 77° |
| 2026-05-06 23:29 | -31.77530 | 116.53885 | 19828 ft | 366 kts | 77° |
| 2026-05-06 23:29 | -31.76961 | 116.56807 | 20331 ft | 369 kts | 78° |
| 2026-05-06 23:29 | -31.76393 | 116.59721 | 20820 ft | 372 kts | 77° |
| 2026-05-06 23:30 | -31.75495 | 116.62576 | 21323 ft | 376 kts | 60° |
| 2026-05-06 23:30 | -31.73885 | 116.65011 | 21824 ft | 381 kts | 49° |
| 2026-05-06 23:30 | -31.72086 | 116.67322 | 22271 ft | 385 kts | 49° |
| 2026-05-06 23:30 | -31.70257 | 116.69635 | 22775 ft | 388 kts | 49° |
| 2026-05-06 23:31 | -31.68400 | 116.71956 | 23265 ft | 392 kts | 48° |
| 2026-05-06 23:31 | -31.66519 | 116.74289 | 23741 ft | 395 kts | 48° |
| 2026-05-06 23:31 | -31.64643 | 116.76606 | 24200 ft | 398 kts | 48° |
| 2026-05-06 23:31 | -31.62730 | 116.78964 | 24604 ft | 401 kts | 48° |
| 2026-05-06 23:32 | -31.60799 | 116.81343 | 25012 ft | 404 kts | 48° |
| 2026-05-06 23:32 | -31.58858 | 116.83732 | 25423 ft | 406 kts | 48° |
| 2026-05-06 23:32 | -31.56888 | 116.86125 | 25817 ft | 410 kts | 44° |
| 2026-05-06 23:32 | -31.54534 | 116.88024 | 26227 ft | 414 kts | 26° |
| 2026-05-06 23:33 | -31.51839 | 116.89256 | 26614 ft | 418 kts | 22° |
| 2026-05-06 23:33 | -31.49092 | 116.90444 | 26956 ft | 422 kts | 21° |
| 2026-05-06 23:33 | -31.46327 | 116.91615 | 27346 ft | 424 kts | 21° |
| 2026-05-06 23:33 | -31.43532 | 116.92780 | 27679 ft | 428 kts | 21° |
| 2026-05-06 23:34 | -31.40760 | 116.93925 | 28043 ft | 430 kts | 20° |
| 2026-05-06 23:34 | -31.37930 | 116.95090 | 28399 ft | 433 kts | 21° |
| 2026-05-06 23:34 | -31.35077 | 116.96264 | 28756 ft | 436 kts | 20° |
| 2026-05-06 23:34 | -31.32208 | 116.97442 | 29110 ft | 438 kts | 21° |
| 2026-05-06 23:35 | -31.29324 | 116.98627 | 29451 ft | 441 kts | 21° |
| 2026-05-06 23:35 | -31.26425 | 116.99816 | 29788 ft | 443 kts | 20° |
| 2026-05-06 23:35 | -31.23506 | 117.01014 | 30122 ft | 446 kts | 21° |
| 2026-05-06 23:35 | -31.20574 | 117.02216 | 30452 ft | 448 kts | 21° |
| 2026-05-06 23:36 | -31.17662 | 117.03408 | 30676 ft | 452 kts | 20° |
| 2026-05-06 23:36 | -31.14681 | 117.04629 | 30900 ft | 456 kts | 20° |
| 2026-05-06 23:36 | -31.11685 | 117.05854 | 31197 ft | 457 kts | 20° |
| 2026-05-06 23:36 | -31.08676 | 117.07084 | 31451 ft | 460 kts | 20° |
| 2026-05-06 23:37 | -31.05647 | 117.08322 | 31718 ft | 462 kts | 20° |
| 2026-05-06 23:37 | -31.02608 | 117.09562 | 31980 ft | 464 kts | 20° |
| 2026-05-06 23:37 | -30.99551 | 117.10808 | 32247 ft | 466 kts | 20° |
| 2026-05-06 23:37 | -30.96481 | 117.12060 | 32505 ft | 468 kts | 20° |
| 2026-05-06 23:38 | -30.93406 | 117.13313 | 32762 ft | 470 kts | 20° |
| 2026-05-06 23:38 | -30.90309 | 117.14574 | 33048 ft | 472 kts | 20° |
| 2026-05-06 23:38 | -30.87252 | 117.15818 | 33352 ft | 472 kts | 19° |
| 2026-05-06 23:38 | -30.84185 | 117.17189 | 33693 ft | 472 kts | 22° |
| 2026-05-06 23:39 | -30.81144 | 117.18618 | 34046 ft | 472 kts | 22° |
| 2026-05-06 23:39 | -30.78096 | 117.20031 | 34385 ft | 471 kts | 22° |
| 2026-05-06 23:39 | -30.75051 | 117.21436 | 34683 ft | 471 kts | 22° |
| 2026-05-06 23:39 | -30.72005 | 117.22839 | 34947 ft | 471 kts | 22° |
| 2026-05-06 23:40 | -30.68955 | 117.24243 | 35194 ft | 472 kts | 21° |
| 2026-05-06 23:40 | -30.65906 | 117.25645 | 35428 ft | 472 kts | 21° |
| 2026-05-06 23:40 | -30.62847 | 117.27051 | 35644 ft | 473 kts | 21° |
| 2026-05-06 23:40 | -30.59819 | 117.28443 | 35803 ft | 475 kts | 21° |
| 2026-05-06 23:41 | -30.56743 | 117.29854 | 36019 ft | 476 kts | 21° |
| 2026-05-06 23:41 | -30.53674 | 117.31262 | 36237 ft | 476 kts | 21° |
| 2026-05-06 23:41 | -30.50587 | 117.32677 | 36444 ft | 477 kts | 21° |
| 2026-05-06 23:41 | -30.47507 | 117.34088 | 36651 ft | 477 kts | 21° |
| 2026-05-06 23:42 | -30.44433 | 117.35496 | 36860 ft | 478 kts | 21° |
| 2026-05-06 23:42 | -30.41342 | 117.36910 | 37040 ft | 478 kts | 21° |
| 2026-05-06 23:42 | -30.38248 | 117.38324 | 37234 ft | 478 kts | 21° |
| 2026-05-06 23:42 | -30.35147 | 117.39741 | 37413 ft | 479 kts | 20° |
| 2026-05-06 23:43 | -30.32044 | 117.41158 | 37509 ft | 480 kts | 20° |
| 2026-05-06 23:43 | -30.25834 | 117.43990 | 37489 ft | 486 kts | 20° |
| 2026-05-06 23:44 | -30.19503 | 117.46873 | 37485 ft | 490 kts | 20° |
| 2026-05-06 23:44 | -30.13177 | 117.49751 | 37486 ft | 489 kts | 20° |
| 2026-05-06 23:45 | -30.06844 | 117.52627 | 37467 ft | 490 kts | 20° |
| 2026-05-06 23:45 | -30.00530 | 117.55490 | 37484 ft | 492 kts | 20° |
| 2026-05-06 23:46 | -29.94162 | 117.58375 | 37477 ft | 492 kts | 20° |
| 2026-05-06 23:46 | -29.87797 | 117.61254 | 37479 ft | 492 kts | 20° |
| 2026-05-06 23:47 | -29.81424 | 117.64135 | 37475 ft | 492 kts | 20° |
| 2026-05-06 23:47 | -29.75095 | 117.66995 | 37478 ft | 494 kts | 20° |
| 2026-05-06 23:48 | -29.68699 | 117.69881 | 37473 ft | 494 kts | 20° |
| 2026-05-06 23:48 | -29.62305 | 117.72763 | 37474 ft | 494 kts | 20° |
| 2026-05-06 23:49 | -29.55912 | 117.75640 | 37473 ft | 494 kts | 20° |
| 2026-05-06 23:49 | -29.49517 | 117.78514 | 37459 ft | 495 kts | 20° |
| 2026-05-06 23:50 | -29.43133 | 117.81380 | 37469 ft | 496 kts | 20° |
| 2026-05-06 23:50 | -29.33494 | 117.85699 | 37465 ft | 496 kts | 20° |
| 2026-05-06 23:51 | -29.27072 | 117.88571 | 37462 ft | 496 kts | 20° |
| 2026-05-06 23:51 | -29.20643 | 117.91443 | 37454 ft | 497 kts | 19° |
| 2026-05-06 23:52 | -29.14224 | 117.94307 | 37457 ft | 498 kts | 19° |
| 2026-05-06 23:52 | -29.07774 | 117.97181 | 37465 ft | 498 kts | 19° |
| 2026-05-06 23:53 | -29.02404 | 117.99570 | 37453 ft | 498 kts | 19° |
| 2026-05-06 23:53 | -28.95938 | 118.02444 | 37456 ft | 498 kts | 19° |
| 2026-05-06 23:54 | -28.88419 | 118.05780 | 37452 ft | 500 kts | 19° |
| 2026-05-06 23:54 | -28.81941 | 118.08651 | 37449 ft | 499 kts | 19° |
| 2026-05-06 23:55 | -28.76565 | 118.11030 | 37447 ft | 499 kts | 19° |
| 2026-05-06 23:55 | -28.69036 | 118.14358 | 37443 ft | 499 kts | 19° |
| 2026-05-06 23:56 | -28.62582 | 118.17206 | 37438 ft | 501 kts | 19° |
| 2026-05-06 23:56 | -28.56066 | 118.20079 | 37443 ft | 502 kts | 19° |
| 2026-05-06 23:57 | -28.50658 | 118.22459 | 37433 ft | 502 kts | 19° |
| 2026-05-06 23:57 | -28.43088 | 118.25787 | 37443 ft | 502 kts | 19° |
| 2026-05-06 23:58 | -28.37638 | 118.28180 | 37435 ft | 502 kts | 19° |
| 2026-05-06 23:58 | -28.31156 | 118.31023 | 37432 ft | 505 kts | 18° |
| 2026-05-06 23:59 | -28.24621 | 118.33885 | 37432 ft | 505 kts | 18° |
| 2026-05-06 23:59 | -28.18067 | 118.36752 | 37435 ft | 505 kts | 18° |
| 2026-05-07 00:00 | -28.11527 | 118.39609 | 37427 ft | 503 kts | 18° |
| 2026-05-07 00:00 | -28.04982 | 118.42465 | 37422 ft | 505 kts | 18° |
| 2026-05-07 00:01 | -27.98458 | 118.45307 | 37421 ft | 506 kts | 18° |
| 2026-05-07 00:01 | -27.91898 | 118.48160 | 37422 ft | 506 kts | 18° |
| 2026-05-07 00:02 | -27.85335 | 118.51012 | 37414 ft | 506 kts | 18° |
| 2026-05-07 00:02 | -27.78764 | 118.53863 | 37409 ft | 506 kts | 18° |
| 2026-05-07 00:03 | -27.72223 | 118.56698 | 37415 ft | 508 kts | 18° |
| 2026-05-07 00:03 | -27.65630 | 118.59551 | 37410 ft | 508 kts | 18° |
| 2026-05-07 00:04 | -27.59032 | 118.62403 | 37412 ft | 508 kts | 18° |
| 2026-05-07 00:04 | -27.52477 | 118.65233 | 37408 ft | 508 kts | 18° |
| 2026-05-07 00:05 | -27.45889 | 118.68073 | 37410 ft | 507 kts | 18° |
| 2026-05-07 00:05 | -27.39307 | 118.70907 | 37404 ft | 506 kts | 18° |
| 2026-05-07 00:06 | -27.32723 | 118.73738 | 37402 ft | 507 kts | 18° |
| 2026-05-07 00:06 | -27.26143 | 118.76565 | 37403 ft | 506 kts | 18° |
| 2026-05-07 00:07 | -27.19617 | 118.79364 | 37379 ft | 507 kts | 17° |
| 2026-05-07 00:07 | -27.13004 | 118.82197 | 37402 ft | 509 kts | 17° |
| 2026-05-07 00:08 | -27.06375 | 118.85033 | 37395 ft | 509 kts | 17° |
| 2026-05-07 00:08 | -26.99763 | 118.87859 | 37395 ft | 509 kts | 17° |
| 2026-05-07 00:09 | -26.93192 | 118.90663 | 37391 ft | 509 kts | 17° |
| 2026-05-07 00:09 | -26.86561 | 118.93489 | 37389 ft | 512 kts | 17° |
| 2026-05-07 00:10 | -26.79897 | 118.96327 | 37399 ft | 512 kts | 17° |
| 2026-05-07 00:10 | -26.73264 | 118.99146 | 37382 ft | 510 kts | 17° |
| 2026-05-07 00:11 | -26.66663 | 119.01949 | 37386 ft | 511 kts | 17° |
| 2026-05-07 00:11 | -26.60017 | 119.04767 | 37363 ft | 511 kts | 17° |
| 2026-05-07 00:12 | -26.53352 | 119.07591 | 37385 ft | 514 kts | 17° |
| 2026-05-07 00:12 | -26.46679 | 119.10413 | 37376 ft | 513 kts | 17° |
| 2026-05-07 00:13 | -26.40001 | 119.13235 | 37377 ft | 513 kts | 17° |
| 2026-05-07 00:13 | -26.33367 | 119.16035 | 37379 ft | 513 kts | 17° |
| 2026-05-07 00:14 | -26.26681 | 119.18852 | 37387 ft | 517 kts | 17° |
| 2026-05-07 00:14 | -26.19954 | 119.21684 | 37373 ft | 516 kts | 17° |
| 2026-05-07 00:15 | -26.13232 | 119.24510 | 37373 ft | 517 kts | 17° |
| 2026-05-07 00:15 | -26.06511 | 119.27332 | 37370 ft | 515 kts | 17° |
| 2026-05-07 00:16 | -25.99864 | 119.30120 | 37362 ft | 516 kts | 16° |
| 2026-05-07 00:16 | -25.93119 | 119.32945 | 37373 ft | 518 kts | 16° |
| 2026-05-07 00:17 | -25.86374 | 119.35767 | 37361 ft | 518 kts | 16° |
| 2026-05-07 00:17 | -25.79642 | 119.38580 | 37367 ft | 518 kts | 16° |
| 2026-05-07 00:18 | -25.72940 | 119.41377 | 37337 ft | 518 kts | 16° |
| 2026-05-07 00:18 | -25.66172 | 119.44198 | 37356 ft | 521 kts | 16° |
| 2026-05-07 00:19 | -25.59388 | 119.47023 | 37351 ft | 521 kts | 16° |
| 2026-05-07 00:19 | -25.52610 | 119.49842 | 37352 ft | 521 kts | 16° |
| 2026-05-07 00:20 | -25.45873 | 119.52640 | 37355 ft | 521 kts | 16° |
| 2026-05-07 00:20 | -25.39095 | 119.55451 | 37348 ft | 521 kts | 15° |
| 2026-05-07 00:21 | -25.32307 | 119.58264 | 37345 ft | 521 kts | 15° |
| 2026-05-07 00:21 | -25.25519 | 119.61073 | 37345 ft | 521 kts | 15° |
| 2026-05-07 00:22 | -25.18726 | 119.63881 | 37336 ft | 521 kts | 15° |
| 2026-05-07 00:22 | -25.11983 | 119.66664 | 37305 ft | 522 kts | 15° |
| 2026-05-07 00:23 | -25.05160 | 119.69479 | 37338 ft | 524 kts | 15° |
| 2026-05-07 00:23 | -24.98336 | 119.72290 | 37336 ft | 524 kts | 15° |
| 2026-05-07 00:24 | -24.91502 | 119.75100 | 37330 ft | 524 kts | 15° |
| 2026-05-07 00:24 | -24.84681 | 119.77902 | 37329 ft | 524 kts | 15° |
| 2026-05-07 00:25 | -24.77893 | 119.80688 | 37326 ft | 525 kts | 15° |
| 2026-05-07 00:25 | -24.71039 | 119.83498 | 37341 ft | 525 kts | 15° |
| 2026-05-07 00:26 | -24.64219 | 119.86290 | 37327 ft | 523 kts | 15° |
| 2026-05-07 00:26 | -24.57394 | 119.89081 | 37325 ft | 524 kts | 15° |
| 2026-05-07 00:27 | -24.50605 | 119.91854 | 37326 ft | 524 kts | 15° |
| 2026-05-07 00:27 | -24.43774 | 119.94641 | 37320 ft | 523 kts | 15° |
| 2026-05-07 00:28 | -24.36952 | 119.97421 | 37318 ft | 524 kts | 15° |
| 2026-05-07 00:28 | -24.30124 | 120.00200 | 37319 ft | 524 kts | 15° |
| 2026-05-07 00:29 | -24.23337 | 120.02960 | 37286 ft | 524 kts | 14° |
| 2026-05-07 00:30 | -24.09631 | 120.08523 | 37308 ft | 526 kts | 14° |
| 2026-05-07 00:30 | -24.02770 | 120.11303 | 37308 ft | 526 kts | 14° |
| 2026-05-07 00:31 | -23.95921 | 120.14075 | 37305 ft | 524 kts | 14° |
| 2026-05-07 00:31 | -23.89131 | 120.16820 | 37293 ft | 526 kts | 14° |
| 2026-05-07 00:32 | -23.82268 | 120.19591 | 37291 ft | 527 kts | 14° |
| 2026-05-07 00:32 | -23.75389 | 120.22366 | 37288 ft | 527 kts | 14° |
| 2026-05-07 00:33 | -23.68523 | 120.25132 | 37297 ft | 527 kts | 14° |
| 2026-05-07 00:33 | -23.61694 | 120.27881 | 37252 ft | 527 kts | 14° |
| 2026-05-07 00:34 | -23.54864 | 120.30905 | 37290 ft | 532 kts | 17° |
| 2026-05-07 00:34 | -23.48034 | 120.33982 | 37281 ft | 531 kts | 16° |
| 2026-05-07 00:35 | -23.41199 | 120.37042 | 37281 ft | 531 kts | 16° |
| 2026-05-07 00:35 | -23.34355 | 120.40102 | 37297 ft | 531 kts | 16° |
| 2026-05-07 00:36 | -23.27576 | 120.43131 | 37270 ft | 531 kts | 16° |
| 2026-05-07 00:36 | -23.20738 | 120.46181 | 37269 ft | 532 kts | 16° |
| 2026-05-07 00:37 | -23.13895 | 120.49231 | 37267 ft | 531 kts | 16° |
| 2026-05-07 00:37 | -23.07051 | 120.52278 | 37264 ft | 531 kts | 16° |
| 2026-05-07 00:38 | -23.00268 | 120.55294 | 37226 ft | 532 kts | 15° |
| 2026-05-07 00:38 | -22.93404 | 120.58343 | 37261 ft | 534 kts | 15° |
| 2026-05-07 00:39 | -22.86525 | 120.61395 | 37252 ft | 533 kts | 15° |
| 2026-05-07 00:39 | -22.79658 | 120.64439 | 37259 ft | 533 kts | 15° |
| 2026-05-07 00:40 | -22.72798 | 120.67476 | 37249 ft | 533 kts | 15° |
| 2026-05-07 00:40 | -22.65968 | 120.70497 | 37254 ft | 535 kts | 15° |
| 2026-05-07 00:41 | -22.59065 | 120.73546 | 37247 ft | 535 kts | 15° |
| 2026-05-07 00:41 | -22.52181 | 120.76584 | 37241 ft | 535 kts | 15° |
| 2026-05-07 00:42 | -22.45283 | 120.79625 | 37245 ft | 535 kts | 15° |
| 2026-05-07 00:42 | -22.38441 | 120.82638 | 37202 ft | 535 kts | 15° |
| 2026-05-07 00:43 | -22.31541 | 120.85673 | 37238 ft | 536 kts | 15° |
| 2026-05-07 00:43 | -22.24633 | 120.88709 | 37230 ft | 536 kts | 15° |
| 2026-05-07 00:44 | -22.17722 | 120.91742 | 37232 ft | 536 kts | 15° |
| 2026-05-07 00:44 | -22.10859 | 120.94752 | 37223 ft | 536 kts | 15° |
| 2026-05-07 00:45 | -22.03960 | 120.97774 | 37221 ft | 535 kts | 15° |
| 2026-05-07 00:45 | -21.97071 | 121.00788 | 37219 ft | 535 kts | 15° |
| 2026-05-07 00:46 | -21.90169 | 121.03804 | 37215 ft | 535 kts | 15° |
| 2026-05-07 00:46 | -21.83286 | 121.06810 | 37217 ft | 535 kts | 15° |
| 2026-05-07 00:47 | -21.76441 | 121.09795 | 37169 ft | 535 kts | 15° |
| 2026-05-07 00:47 | -21.69549 | 121.12799 | 37209 ft | 535 kts | 15° |
| 2026-05-07 00:48 | -21.62654 | 121.15799 | 37209 ft | 534 kts | 15° |
| 2026-05-07 00:48 | -21.55765 | 121.18795 | 37209 ft | 534 kts | 15° |
| 2026-05-07 00:49 | -21.48916 | 121.21771 | 37195 ft | 534 kts | 15° |
| 2026-05-07 00:49 | -21.42024 | 121.24762 | 37211 ft | 534 kts | 15° |
| 2026-05-07 00:50 | -21.35164 | 121.27783 | 37188 ft | 533 kts | 15° |
| 2026-05-07 00:50 | -21.28315 | 121.30843 | 37187 ft | 533 kts | 15° |
| 2026-05-07 00:51 | -21.21516 | 121.33871 | 37183 ft | 533 kts | 15° |
| 2026-05-07 00:51 | -21.14673 | 121.36915 | 37137 ft | 533 kts | 15° |
| 2026-05-07 00:52 | -21.07824 | 121.39958 | 37184 ft | 533 kts | 15° |
| 2026-05-07 00:52 | -21.00978 | 121.42997 | 37177 ft | 533 kts | 15° |
| 2026-05-07 00:53 | -20.94131 | 121.46034 | 37169 ft | 533 kts | 15° |
| 2026-05-07 00:53 | -20.87339 | 121.49043 | 37160 ft | 533 kts | 15° |
| 2026-05-07 00:54 | -20.80488 | 121.52076 | 37159 ft | 532 kts | 15° |
| 2026-05-07 00:54 | -20.73657 | 121.55096 | 37157 ft | 531 kts | 15° |
| 2026-05-07 00:55 | -20.66850 | 121.58103 | 37164 ft | 531 kts | 15° |
| 2026-05-07 00:55 | -20.60021 | 121.61117 | 37153 ft | 531 kts | 15° |
| 2026-05-07 00:56 | -20.53237 | 121.64108 | 37123 ft | 531 kts | 15° |
| 2026-05-07 00:56 | -20.46416 | 121.67112 | 37152 ft | 531 kts | 15° |
| 2026-05-07 00:57 | -20.39598 | 121.70113 | 37146 ft | 530 kts | 15° |
| 2026-05-07 00:57 | -20.32770 | 121.73114 | 37150 ft | 531 kts | 15° |
| 2026-05-07 00:58 | -20.25990 | 121.76093 | 37144 ft | 531 kts | 15° |
| 2026-05-07 00:58 | -20.19175 | 121.79083 | 37117 ft | 530 kts | 15° |
| 2026-05-07 00:59 | -20.08956 | 121.83563 | 37134 ft | 528 kts | 15° |
| 2026-05-07 01:00 | -20.02165 | 121.86537 | 37124 ft | 528 kts | 15° |
| 2026-05-07 01:00 | -19.95416 | 121.89490 | 37138 ft | 529 kts | 15° |
| 2026-05-07 01:01 | -19.88612 | 121.92464 | 37104 ft | 528 kts | 15° |
| 2026-05-07 01:01 | -19.81816 | 121.95432 | 37126 ft | 528 kts | 15° |
| 2026-05-07 01:02 | -19.75022 | 121.98397 | 37118 ft | 528 kts | 15° |
| 2026-05-07 01:02 | -19.68222 | 122.01361 | 37116 ft | 528 kts | 15° |
| 2026-05-07 01:03 | -19.61466 | 122.04303 | 37115 ft | 528 kts | 15° |
| 2026-05-07 01:03 | -19.54670 | 122.07260 | 37111 ft | 529 kts | 15° |
| 2026-05-07 01:04 | -19.47870 | 122.10217 | 37109 ft | 527 kts | 15° |
| 2026-05-07 01:04 | -19.44503 | 122.11681 | 36963 ft | 519 kts | 15° |
| 2026-05-07 01:04 | -19.41140 | 122.13139 | 35884 ft | 527 kts | 15° |
| 2026-05-07 01:04 | -19.37791 | 122.14594 | 35155 ft | 523 kts | 14° |
| 2026-05-07 01:05 | -19.34439 | 122.16047 | 34341 ft | 519 kts | 14° |
| 2026-05-07 01:05 | -19.31100 | 122.17496 | 33301 ft | 520 kts | 14° |
| 2026-05-07 01:05 | -19.27753 | 122.18947 | 32298 ft | 519 kts | 14° |
| 2026-05-07 01:05 | -19.24432 | 122.20386 | 31503 ft | 514 kts | 14° |
| 2026-05-07 01:06 | -19.21130 | 122.21815 | 30733 ft | 509 kts | 14° |
| 2026-05-07 01:06 | -19.17862 | 122.23231 | 29753 ft | 507 kts | 15° |
| 2026-05-07 01:06 | -19.14576 | 122.24652 | 28459 ft | 515 kts | 15° |
| 2026-05-07 01:06 | -19.11281 | 122.26077 | 27306 ft | 521 kts | 16° |
| 2026-05-07 01:07 | -19.07924 | 122.27530 | 26388 ft | 520 kts | 17° |
| 2026-05-07 01:07 | -19.04598 | 122.28968 | 25343 ft | 516 kts | 17° |
| 2026-05-07 01:07 | -19.01302 | 122.30393 | 24280 ft | 506 kts | 18° |
| 2026-05-07 01:07 | -18.98066 | 122.31765 | 23322 ft | 491 kts | 15° |
| 2026-05-07 01:08 | -18.94865 | 122.32644 | 22840 ft | 464 kts | 2° |
| 2026-05-07 01:08 | -18.91719 | 122.32760 | 21669 ft | 449 kts | 353° |
| 2026-05-07 01:08 | -18.88610 | 122.32593 | 20783 ft | 444 kts | 352° |
| 2026-05-07 01:08 | -18.85529 | 122.32364 | 20073 ft | 444 kts | 352° |
| 2026-05-07 01:09 | -18.82496 | 122.32108 | 19364 ft | 441 kts | 351° |
| 2026-05-07 01:09 | -18.79475 | 122.31836 | 18672 ft | 431 kts | 351° |
| 2026-05-07 01:09 | -18.76493 | 122.31557 | 17917 ft | 430 kts | 351° |
| 2026-05-07 01:09 | -18.73508 | 122.31272 | 17116 ft | 431 kts | 351° |
| 2026-05-07 01:10 | -18.70529 | 122.30990 | 16145 ft | 426 kts | 351° |
| 2026-05-07 01:10 | -18.67557 | 122.30704 | 14743 ft | 430 kts | 352° |
| 2026-05-07 01:10 | -18.64706 | 122.30439 | 14489 ft | 405 kts | 351° |
| 2026-05-07 01:10 | -18.61901 | 122.30169 | 13727 ft | 399 kts | 351° |
| 2026-05-07 01:11 | -18.59171 | 122.29908 | 13244 ft | 399 kts | 352° |
| 2026-05-07 01:11 | -18.56448 | 122.29649 | 12575 ft | 387 kts | 352° |
| 2026-05-07 01:11 | -18.53790 | 122.29395 | 11780 ft | 380 kts | 353° |
| 2026-05-07 01:11 | -18.51228 | 122.29152 | 11537 ft | 358 kts | 352° |
| 2026-05-07 01:12 | -18.48828 | 122.28925 | 11414 ft | 334 kts | 353° |
| 2026-05-07 01:12 | -18.46579 | 122.28709 | 11270 ft | 315 kts | 353° |
| 2026-05-07 01:12 | -18.44458 | 122.28510 | 11104 ft | 297 kts | 352° |
| 2026-05-07 01:12 | -18.42456 | 122.28318 | 10941 ft | 281 kts | 353° |
| 2026-05-07 01:13 | -18.40564 | 122.28138 | 10811 ft | 266 kts | 353° |
| 2026-05-07 01:13 | -18.38756 | 122.27965 | 10686 ft | 266 kts | 354° |
| 2026-05-07 01:13 | -18.36874 | 122.27785 | 10545 ft | 276 kts | 353° |
| 2026-05-07 01:13 | -18.34948 | 122.27604 | 10386 ft | 280 kts | 353° |
| 2026-05-07 01:14 | -18.33012 | 122.27419 | 10233 ft | 280 kts | 353° |
| 2026-05-07 01:14 | -18.31071 | 122.27235 | 10089 ft | 280 kts | 353° |
| 2026-05-07 01:14 | -18.29132 | 122.27051 | 9877 ft | 280 kts | 354° |
| 2026-05-07 01:14 | -18.27188 | 122.26866 | 9525 ft | 281 kts | 354° |
| 2026-05-07 01:15 | -18.25243 | 122.26682 | 9200 ft | 280 kts | 354° |
| 2026-05-07 01:15 | -18.23334 | 122.26502 | 8892 ft | 278 kts | 355° |
| 2026-05-07 01:15 | -18.21411 | 122.26320 | 8577 ft | 277 kts | 355° |
| 2026-05-07 01:15 | -18.19497 | 122.26145 | 8229 ft | 277 kts | 353° |
| 2026-05-07 01:16 | -18.17609 | 122.25779 | 7877 ft | 278 kts | 347° |
| 2026-05-07 01:16 | -18.15758 | 122.25195 | 7562 ft | 278 kts | 342° |
| 2026-05-07 01:16 | -18.13977 | 122.24431 | 7294 ft | 272 kts | 337° |
| 2026-05-07 01:16 | -18.12319 | 122.23543 | 6992 ft | 264 kts | 332° |
| 2026-05-07 01:17 | -18.10769 | 122.22536 | 6666 ft | 262 kts | 328° |
| 2026-05-07 01:17 | -18.09315 | 122.21401 | 6309 ft | 258 kts | 323° |
| 2026-05-07 01:17 | -18.08001 | 122.20184 | 5991 ft | 253 kts | 319° |
| 2026-05-07 01:17 | -18.06785 | 122.18884 | 5704 ft | 247 kts | 315° |
| 2026-05-07 01:18 | -18.05685 | 122.17505 | 5419 ft | 246 kts | 310° |
| 2026-05-07 01:18 | -18.04687 | 122.16058 | 5201 ft | 243 kts | 306° |
| 2026-05-07 01:18 | -18.03808 | 122.14553 | 5059 ft | 242 kts | 302° |
| 2026-05-07 01:18 | -18.03047 | 122.12968 | 4917 ft | 244 kts | 297° |
| 2026-05-07 01:19 | -18.02397 | 122.11329 | 4767 ft | 242 kts | 294° |
| 2026-05-07 01:19 | -18.01890 | 122.09674 | 4651 ft | 233 kts | 290° |
| 2026-05-07 01:19 | -18.01340 | 122.08141 | 4489 ft | 218 kts | 301° |
| 2026-05-07 01:19 | -18.00504 | 122.06896 | 4213 ft | 207 kts | 320° |
| 2026-05-07 01:20 | -17.99372 | 122.06015 | 3894 ft | 199 kts | 339° |
| 2026-05-07 01:20 | -17.98117 | 122.05551 | 3635 ft | 185 kts | 356° |
| 2026-05-07 01:20 | -17.96884 | 122.05444 | 3380 ft | 170 kts | 9° |
| 2026-05-07 01:20 | -17.95768 | 122.05606 | 3101 ft | 155 kts | 21° |
| 2026-05-07 01:21 | -17.94817 | 122.05958 | 2937 ft | 138 kts | 32° |
| 2026-05-07 01:21 | -17.94004 | 122.06472 | 2856 ft | 135 kts | 42° |
| 2026-05-07 01:21 | -17.93327 | 122.07126 | 2684 ft | 130 kts | 52° |
| 2026-05-07 01:21 | -17.92796 | 122.07869 | 2522 ft | 124 kts | 60° |
| 2026-05-07 01:22 | -17.92413 | 122.08630 | 2176 ft | 118 kts | 68° |
| 2026-05-07 01:22 | -17.92141 | 122.09449 | 1717 ft | 117 kts | 78° |
| 2026-05-07 01:22 | -17.92004 | 122.10283 | 1507 ft | 117 kts | 84° |
| 2026-05-07 01:22 | -17.92009 | 122.11151 | 1503 ft | 120 kts | 92° |
| 2026-05-07 01:23 | -17.92160 | 122.12017 | 1499 ft | 121 kts | 99° |
| 2026-05-07 01:23 | -17.92319 | 122.12875 | 1495 ft | 119 kts | 97° |
| 2026-05-07 01:23 | -17.92497 | 122.13726 | 1486 ft | 118 kts | 99° |
| 2026-05-07 01:23 | -17.92703 | 122.14549 | 1410 ft | 118 kts | 100° |
| 2026-05-07 01:24 | -17.92929 | 122.15401 | 1254 ft | 124 kts | 101° |
| 2026-05-07 01:24 | -17.93179 | 122.16262 | 1073 ft | 126 kts | 103° |
| 2026-05-07 01:24 | -17.93426 | 122.17152 | 893 ft | 129 kts | 103° |
| 2026-05-07 01:24 | -17.93639 | 122.18061 | 729 ft | 127 kts | 104° |
| 2026-05-07 01:25 | -17.93870 | 122.18962 | 581 ft | 127 kts | 107° |
| 2026-05-07 01:25 | -17.94118 | 122.19828 | 450 ft | 124 kts | 106° |
| 2026-05-07 01:25 | -17.94339 | 122.20727 | 259 ft | 131 kts | 104° |
| 2026-05-07 01:25 | -17.94585 | 122.21651 | 106 ft | 131 kts | 105° |
| 2026-05-07 01:26 | -17.94804 | 122.22470 | 55 ft | 91 kts | 106° |
| 2026-05-07 01:26 | -17.94927 | 122.22939 | 47 ft | 60 kts | 105° |
| 2026-05-07 01:26 | -17.95027 | 122.23320 | 39 ft | 34 kts | 105° |
| 2026-05-07 01:26 | -17.95094 | 122.23388 | 38 ft | 10 kts | 198° |
| 2026-05-07 01:27 | -17.95139 | 122.23373 | 39 ft | 0 kts | 198° |
| 2026-05-07 01:27 | -17.95148 | 122.23370 | 38 ft | 2 kts | 198° |
| 2026-05-07 01:27 | -17.95169 | 122.23360 | 39 ft | 4 kts | 216° |
| 2026-05-07 01:27 | -17.95184 | 122.23333 | 39 ft | 4 kts | 247° |
| 2026-05-07 01:28 | -17.95203 | 122.23305 | 40 ft | 5 kts | 218° |
| 2026-05-07 01:28 | -17.95244 | 122.23290 | 40 ft | 6 kts | 189° |
| 2026-05-07 01:28 | -17.95274 | 122.23284 | 40 ft | 3 kts | 192° |
| 2026-05-07 01:28 | -17.95297 | 122.23273 | 38 ft | 5 kts | 209° |
| 2026-05-07 01:29 | -17.95319 | 122.23278 | 40 ft | 1 kts | 130° |
| 2026-05-07 01:29 | -17.95319 | 122.23302 | 40 ft | 4 kts | 81° |
| 2026-05-07 01:29 | -17.95313 | 122.23318 | 37 ft | 1 kts | 70° |
| 2026-05-07 01:29 | -17.95313 | 122.23319 | 37 ft | 0 kts | 70° |